createdAt,value
2022-10-29T00:01:35.809Z,16.55
2022-10-29T00:04:04.227Z,16.67
2022-10-29T00:06:33.515Z,22.77
2022-10-29T00:09:06.054Z,17.83
2022-10-29T00:11:38.415Z,22.15
2022-10-29T00:16:37.650Z,20.75
2022-10-29T00:19:06.616Z,20.92
2022-10-29T00:21:35.716Z,16.75
2022-10-29T00:24:08.042Z,22.65
2022-10-29T00:26:37.137Z,22.77
2022-10-29T00:29:05.414Z,20.00
2022-10-29T00:31:33.832Z,20.15
2022-10-29T00:34:03.185Z,16.00
2022-10-29T00:36:34.262Z,25.08
2022-10-29T00:39:06.112Z,16.20
2022-10-29T00:41:39.725Z,19.73
2022-10-29T00:44:30.291Z,20.25
2022-10-29T00:47:03.757Z,25.30
2022-10-29T00:49:33.640Z,20.63
2022-10-29T00:52:03.637Z,21.45
2022-10-29T00:54:32.439Z,21.80
2022-10-29T00:57:07.287Z,21.25
2022-10-29T00:59:36.514Z,22.00
2022-10-29T01:02:06.324Z,24.20
2022-10-29T01:04:35.396Z,15.75
2022-10-29T01:07:06.296Z,18.63
2022-10-29T01:09:37.292Z,23.10
2022-10-29T01:12:30.647Z,18.80
2022-10-29T01:15:14.542Z,18.30
2022-10-29T01:17:57.221Z,17.13
2022-10-29T01:20:52.818Z,18.10
2022-10-29T01:23:42.265Z,25.50
2022-10-29T01:26:29.035Z,28.15
2022-10-29T01:29:12.101Z,23.90
2022-10-29T01:31:47.696Z,17.88
2022-10-29T01:34:20.537Z,23.65
2022-10-29T01:36:55.405Z,20.45
2022-10-29T01:39:29.557Z,21.52
2022-10-29T01:42:06.904Z,26.77
2022-10-29T01:44:38.054Z,23.05
2022-10-29T01:47:21.489Z,28.13
2022-10-29T01:49:54.044Z,18.50
2022-10-29T01:52:24.848Z,31.63
2022-10-29T01:54:53.693Z,22.02
2022-10-29T01:57:34.188Z,17.85
2022-10-29T02:00:14.801Z,22.50
2022-10-29T02:03:07.037Z,22.65
2022-10-29T02:05:38.578Z,21.90
2022-10-29T02:08:23.529Z,19.23
2022-10-29T02:10:55.205Z,23.73
2022-10-29T02:13:30.814Z,16.25
2022-10-29T02:15:59.846Z,22.20
2022-10-29T02:18:30.073Z,18.42
2022-10-29T02:20:58.311Z,19.48
2022-10-29T02:23:29.311Z,21.67
2022-10-29T02:25:57.378Z,22.15
2022-10-29T02:28:28.313Z,21.85
2022-10-29T02:31:03.189Z,24.73
2022-10-29T02:33:35.006Z,26.95
2022-10-29T02:36:09.296Z,22.50
2022-10-29T02:38:39.373Z,24.38
2022-10-29T02:41:08.170Z,20.35
2022-10-29T02:43:38.166Z,22.42
2022-10-29T02:46:14.441Z,26.08
2022-10-29T02:48:43.851Z,19.27
2022-10-29T02:51:15.500Z,23.45
2022-10-29T02:53:53.729Z,17.20
2022-10-29T02:56:25.120Z,28.45
2022-10-29T02:59:00.738Z,21.13
2022-10-29T03:01:30.113Z,25.42
2022-10-29T03:04:03.416Z,23.05
2022-10-29T03:06:34.279Z,20.77
2022-10-29T03:09:06.648Z,19.95
2022-10-29T03:14:08.550Z,25.75
2022-10-29T03:16:40.188Z,20.83
2022-10-29T03:19:09.806Z,20.35
2022-10-29T03:21:38.707Z,17.92
2022-10-29T03:24:08.242Z,23.13
2022-10-29T03:26:36.248Z,22.77
2022-10-29T03:29:07.055Z,20.17
2022-10-29T03:31:35.750Z,22.13
2022-10-29T03:34:12.849Z,20.13
2022-10-29T03:36:46.571Z,20.58
2022-10-29T03:39:17.072Z,28.83
2022-10-29T03:41:49.986Z,20.63
2022-10-29T03:44:26.848Z,21.02
2022-10-29T03:46:55.287Z,19.65
2022-10-29T03:49:23.380Z,23.17
2022-10-29T03:51:53.356Z,23.05
2022-10-29T03:54:23.290Z,22.75
2022-10-29T03:56:53.890Z,17.55
2022-10-29T03:59:22.051Z,23.20
2022-10-29T04:01:52.349Z,21.08
2022-10-29T04:04:21.431Z,21.55
2022-10-29T04:06:52.240Z,23.67
2022-10-29T04:09:27.033Z,20.60
2022-10-29T04:11:56.516Z,20.98
2022-10-29T04:14:28.131Z,17.27
2022-10-29T04:16:56.698Z,15.70
2022-10-29T04:19:24.966Z,20.08
2022-10-29T04:30:35.268Z,22.25
2022-10-29T04:33:03.805Z,18.77
2022-10-29T04:35:32.170Z,26.15
2022-10-29T04:38:00.346Z,17.10
2022-10-29T04:40:29.908Z,19.70
2022-10-29T04:42:58.511Z,19.77
2022-10-29T04:45:27.465Z,19.98
2022-10-29T04:48:01.762Z,19.27
2022-10-29T04:50:30.091Z,17.73
2022-10-29T04:53:04.825Z,19.10
2022-10-29T04:55:38.503Z,21.05
2022-10-29T04:58:09.255Z,20.73
2022-10-29T05:00:37.854Z,16.65
2022-10-29T05:03:07.909Z,24.10
2022-10-29T05:05:41.472Z,22.83
2022-10-29T05:08:26.047Z,17.02
2022-10-29T05:11:02.322Z,22.55
2022-10-29T05:13:30.867Z,18.98
2022-10-29T05:16:00.666Z,17.40
2022-10-29T05:18:30.280Z,29.13
2022-10-29T05:21:00.274Z,18.73
2022-10-29T05:23:32.201Z,25.75
2022-10-29T05:26:06.319Z,23.95
2022-10-29T05:28:34.781Z,20.30
2022-10-29T05:31:07.065Z,18.98
2022-10-29T05:33:37.126Z,16.90
2022-10-29T05:36:15.507Z,24.50
2022-10-29T05:38:44.547Z,25.65
2022-10-29T05:41:14.479Z,20.67
2022-10-29T05:43:46.540Z,23.73
2022-10-29T05:46:14.536Z,24.02
2022-10-29T05:48:47.150Z,27.52
2022-10-29T05:53:48.945Z,20.40
2022-10-29T05:56:20.947Z,24.15
2022-10-29T06:01:22.757Z,25.52
2022-10-29T06:06:25.079Z,23.45
2022-10-29T06:08:53.489Z,30.23
2022-10-29T06:11:25.382Z,21.33
2022-10-29T06:14:07.255Z,27.38
2022-10-29T06:16:35.378Z,20.73
2022-10-29T06:19:06.239Z,30.75
2022-10-29T06:21:34.716Z,17.60
2022-10-29T06:24:03.511Z,20.20
2022-10-29T06:26:36.342Z,27.55
2022-10-29T06:29:07.081Z,29.52
2022-10-29T06:31:39.050Z,19.27
2022-10-29T06:34:08.559Z,24.52
2022-10-29T06:36:37.748Z,21.85
2022-10-29T06:39:10.586Z,22.88
2022-10-29T06:41:52.603Z,28.95
2022-10-29T06:44:29.714Z,23.20
2022-10-29T06:46:58.880Z,18.13
2022-10-29T06:49:28.472Z,25.52
2022-10-29T06:51:56.539Z,20.75
2022-10-29T06:54:26.860Z,20.80
2022-10-29T06:56:58.081Z,26.38
2022-10-29T06:59:27.343Z,19.70
2022-10-29T07:01:55.586Z,18.08
2022-10-29T07:04:26.073Z,15.55
2022-10-29T07:06:54.136Z,22.50
2022-10-29T07:09:22.561Z,20.58
2022-10-29T07:11:51.036Z,15.82
2022-10-29T07:14:22.707Z,10.57
2022-10-29T07:16:50.715Z,18.40
2022-10-29T07:19:19.363Z,18.52
2022-10-29T07:21:47.433Z,21.77
2022-10-29T07:24:25.530Z,16.65
2022-10-29T07:26:57.252Z,16.15
2022-10-29T07:29:37.627Z,16.90
2022-10-29T07:32:08.112Z,16.55
2022-10-29T07:34:36.308Z,16.17
2022-10-29T07:37:04.323Z,15.57
2022-10-29T07:39:33.913Z,17.05
2022-10-29T07:42:04.983Z,17.23
2022-10-29T07:44:37.714Z,15.02
2022-10-29T07:47:07.059Z,18.83
2022-10-29T07:49:35.139Z,15.30
2022-10-29T07:52:03.713Z,21.50
2022-10-29T07:54:33.144Z,14.10
2022-10-29T07:57:01.845Z,20.27
2022-10-29T07:59:32.719Z,15.60
2022-10-29T08:02:03.429Z,12.05
2022-10-29T08:04:31.895Z,16.00
2022-10-29T08:07:01.519Z,11.45
2022-10-29T08:09:30.129Z,19.73
2022-10-29T08:12:02.018Z,14.82
2022-10-29T08:14:31.225Z,18.48
2022-10-29T08:17:00.974Z,13.82
2022-10-29T08:19:30.638Z,13.82
2022-10-29T08:22:01.116Z,13.75
2022-10-29T08:24:31.598Z,14.32
2022-10-29T08:27:00.083Z,17.88
2022-10-29T08:29:31.045Z,11.55
2022-10-29T08:32:00.430Z,15.32
2022-10-29T08:34:31.743Z,12.40
2022-10-29T08:37:00.401Z,15.20
2022-10-29T08:39:28.737Z,14.25
2022-10-29T08:42:03.299Z,22.17
2022-10-29T08:45:00.276Z,14.30
2022-10-29T08:47:30.626Z,14.13
2022-10-29T08:50:08.070Z,16.45
2022-10-29T08:52:48.194Z,21.73
2022-10-29T08:55:30.953Z,23.33
2022-10-29T08:58:00.927Z,14.68
2022-10-29T09:00:35.886Z,18.35
2022-10-29T09:03:04.392Z,16.90
2022-10-29T09:05:42.275Z,12.45
2022-10-29T09:08:25.214Z,15.10
2022-10-29T09:10:55.581Z,17.80
2022-10-29T09:13:33.072Z,14.38
2022-10-29T09:16:18.321Z,12.23
2022-10-29T09:18:56.763Z,17.75
2022-10-29T09:21:33.076Z,12.63
2022-10-29T09:24:13.084Z,15.30
2022-10-29T09:26:50.024Z,20.33
2022-10-29T09:29:29.711Z,16.83
2022-10-29T09:32:01.630Z,14.95
2022-10-29T09:34:35.607Z,13.13
2022-10-29T09:37:16.894Z,14.70
2022-10-29T09:39:51.015Z,17.10
2022-10-29T09:42:24.650Z,17.30
2022-10-29T09:44:55.963Z,12.68
2022-10-29T09:47:37.038Z,19.38
2022-10-29T09:50:12.733Z,17.08
2022-10-29T09:52:46.207Z,15.93
2022-10-29T09:55:20.624Z,19.60
2022-10-29T09:57:50.615Z,16.10
2022-10-29T10:00:23.708Z,12.60
2022-10-29T10:02:57.804Z,13.23
2022-10-29T10:05:30.965Z,14.70
2022-10-29T10:08:08.863Z,17.60
2022-10-29T10:10:40.755Z,14.60
2022-10-29T10:13:17.230Z,14.55
2022-10-29T10:15:56.938Z,14.93
2022-10-29T10:18:32.241Z,18.00
2022-10-29T10:21:06.919Z,17.13
2022-10-29T10:26:31.831Z,17.73
2022-10-29T10:29:10.525Z,15.15
2022-10-29T10:31:38.856Z,19.48
2022-10-29T10:34:16.685Z,21.73
2022-10-29T10:36:47.438Z,18.77
2022-10-29T10:39:23.012Z,19.63
2022-10-29T10:41:52.376Z,18.50
2022-10-29T10:44:27.273Z,15.50
2022-10-29T10:46:59.875Z,13.85
2022-10-29T10:49:33.253Z,18.85
2022-10-29T10:52:06.394Z,15.25
2022-10-29T10:54:41.948Z,19.73
2022-10-29T10:57:22.760Z,17.17
2022-10-29T11:00:00.505Z,18.40
2022-10-29T11:02:39.575Z,14.88
2022-10-29T11:05:18.615Z,17.48
2022-10-29T11:07:56.611Z,22.42
2022-10-29T11:10:33.464Z,16.85
2022-10-29T11:13:06.329Z,16.67
2022-10-29T11:15:42.755Z,19.27
2022-10-29T11:20:55.552Z,19.60
2022-10-29T11:23:40.898Z,15.80
2022-10-29T11:26:14.879Z,20.77
2022-10-29T11:28:48.132Z,18.70
2022-10-29T11:31:26.876Z,16.05
2022-10-29T11:34:00.142Z,18.20
2022-10-29T11:36:31.481Z,16.70
2022-10-29T11:39:03.493Z,24.90
2022-10-29T11:41:37.317Z,19.55
2022-10-29T11:44:06.952Z,21.10
2022-10-29T11:46:47.730Z,13.55
2022-10-29T11:49:28.582Z,17.52
2022-10-29T11:52:05.977Z,18.27
2022-10-29T11:54:48.379Z,13.68
2022-10-29T12:00:12.262Z,16.70
2022-10-29T12:03:01.487Z,15.70
2022-10-29T12:05:33.386Z,16.20
2022-10-29T12:08:11.916Z,26.05
2022-10-29T12:10:47.125Z,20.95
2022-10-29T12:13:23.909Z,14.40
2022-10-29T12:16:06.035Z,20.58
2022-10-29T12:18:45.177Z,13.23
2022-10-29T12:21:19.808Z,16.95
2022-10-29T12:23:54.948Z,20.73
2022-10-29T12:26:27.752Z,14.88
2022-10-29T12:29:05.426Z,18.75
2022-10-29T12:31:49.689Z,13.93
2022-10-29T12:34:25.211Z,13.73
2022-10-29T12:37:03.518Z,18.42
2022-10-29T12:39:38.728Z,18.35
2022-10-29T12:42:10.954Z,17.60
2022-10-29T12:44:48.323Z,17.27
2022-10-29T12:47:19.505Z,13.73
2022-10-29T12:49:55.356Z,21.15
2022-10-29T12:55:26.253Z,15.45
2022-10-29T12:57:56.371Z,20.00
2022-10-29T13:00:48.644Z,15.23
2022-10-29T13:04:00.317Z,18.05
2022-10-29T13:06:46.973Z,14.73
2022-10-29T13:09:20.388Z,13.65
2022-10-29T13:11:50.373Z,21.20
2022-10-29T13:14:24.612Z,14.93
2022-10-29T13:16:54.805Z,14.85
2022-10-29T13:19:32.917Z,16.00
2022-10-29T13:22:19.501Z,18.63
2022-10-29T13:25:23.239Z,13.38
2022-10-29T13:27:51.242Z,15.18
2022-10-29T13:30:23.891Z,18.95
2022-10-29T13:32:53.804Z,18.85
2022-10-29T13:35:52.693Z,15.93
2022-10-29T13:38:21.003Z,15.18
2022-10-29T13:41:15.443Z,22.45
2022-10-29T13:43:53.758Z,18.23
2022-10-29T13:46:45.291Z,17.75
2022-10-29T13:49:19.933Z,12.00
2022-10-29T13:51:55.952Z,19.25
2022-10-29T13:55:05.143Z,15.63
2022-10-29T13:57:38.531Z,18.77
2022-10-29T14:00:10.792Z,18.92
2022-10-29T14:05:26.004Z,13.38
2022-10-29T14:08:03.767Z,18.92
2022-10-29T14:10:34.623Z,23.27
2022-10-29T14:13:12.162Z,13.60
2022-10-29T14:16:00.226Z,19.65
2022-10-29T14:18:32.923Z,18.40
2022-10-29T14:21:06.302Z,17.40
2022-10-29T14:23:34.504Z,16.63
2022-10-29T14:26:08.460Z,12.55
2022-10-29T14:28:36.608Z,15.15
2022-10-29T14:31:06.506Z,15.48
2022-10-29T14:33:37.069Z,15.18
2022-10-29T14:36:23.360Z,14.05
2022-10-29T14:38:53.270Z,21.60
2022-10-29T14:41:23.953Z,17.13
2022-10-29T14:44:00.200Z,13.30
2022-10-29T14:46:30.357Z,22.00
2022-10-29T14:49:05.511Z,21.65
2022-10-29T14:51:39.655Z,22.98
2022-10-29T14:54:09.989Z,29.95
2022-10-29T14:56:42.161Z,21.70
2022-10-29T14:59:19.065Z,14.38
2022-10-29T15:01:51.629Z,30.98
2022-10-29T15:04:22.524Z,18.85
2022-10-29T15:06:57.655Z,23.48
2022-10-29T15:09:28.888Z,20.95
2022-10-29T15:12:07.959Z,18.23
2022-10-29T15:14:38.868Z,19.55
2022-10-29T15:17:10.538Z,15.95
2022-10-29T15:19:43.752Z,20.55
2022-10-29T15:22:20.578Z,18.27
2022-10-29T15:24:50.886Z,19.52
2022-10-29T15:27:19.409Z,23.67
2022-10-29T15:29:49.761Z,27.80
2022-10-29T15:32:19.946Z,22.15
2022-10-29T15:34:50.249Z,27.73
2022-10-29T15:37:42.869Z,22.38
2022-10-29T15:42:42.235Z,18.83
2022-10-29T15:45:24.001Z,16.67
2022-10-29T15:47:56.796Z,24.05
2022-10-29T15:53:17.451Z,25.67
2022-10-29T15:55:46.975Z,26.98
2022-10-29T15:58:20.734Z,19.08
2022-10-29T16:00:51.501Z,19.73
2022-10-29T16:03:21.091Z,20.17
2022-10-29T16:05:52.472Z,25.50
2022-10-29T16:08:33.334Z,26.92
2022-10-29T16:11:10.232Z,26.50
2022-10-29T16:13:38.928Z,22.27
2022-10-29T16:16:13.685Z,16.65
2022-10-29T16:18:41.710Z,19.75
2022-10-29T16:21:17.666Z,26.55
2022-10-29T16:23:47.378Z,23.23
2022-10-29T16:26:19.877Z,23.13
2022-10-29T16:28:48.061Z,29.52
2022-10-29T16:31:27.409Z,23.90
2022-10-29T16:33:58.160Z,27.45
2022-10-29T16:36:28.931Z,24.17
2022-10-29T16:38:59.887Z,24.35
2022-10-29T16:41:28.928Z,33.92
2022-10-29T16:43:58.801Z,22.92
2022-10-29T16:46:28.316Z,21.40
2022-10-29T16:48:59.881Z,23.48
2022-10-29T16:51:29.205Z,24.52
2022-10-29T16:54:14.870Z,27.17
2022-10-29T16:56:48.003Z,31.35
2022-10-29T16:59:18.274Z,27.23
2022-10-29T17:01:51.455Z,25.27
2022-10-29T17:04:20.606Z,29.00
2022-10-29T17:06:49.113Z,28.75
2022-10-29T17:09:24.529Z,30.38
2022-10-29T17:12:06.267Z,26.92
2022-10-29T17:14:34.884Z,24.85
2022-10-29T17:17:05.991Z,20.30
2022-10-29T17:19:34.288Z,22.38
2022-10-29T17:22:08.325Z,29.05
2022-10-29T17:24:38.948Z,30.55
2022-10-29T17:27:09.487Z,26.98
2022-10-29T17:29:41.067Z,26.60
2022-10-29T17:32:11.974Z,31.10
2022-10-29T17:34:44.556Z,29.52
2022-10-29T17:37:14.737Z,26.55
2022-10-29T17:39:46.448Z,28.45
2022-10-29T17:42:14.975Z,25.73
2022-10-29T17:44:43.531Z,23.00
2022-10-29T17:47:11.670Z,31.83
2022-10-29T17:49:43.015Z,44.55
2022-10-29T17:52:16.518Z,38.08
2022-10-29T17:54:46.616Z,26.33
2022-10-29T17:57:16.852Z,27.65
2022-10-29T17:59:47.086Z,28.77
2022-10-29T18:02:20.523Z,31.33
2022-10-29T18:04:58.618Z,33.50
2022-10-29T18:07:28.288Z,33.00
2022-10-29T18:10:04.303Z,31.10
2022-10-29T18:12:36.358Z,32.05
2022-10-29T18:15:06.448Z,30.20
2022-10-29T18:17:35.163Z,33.25
2022-10-29T18:20:04.782Z,36.78
2022-10-29T18:22:35.802Z,36.72
2022-10-29T18:25:06.132Z,37.50
2022-10-29T18:27:35.163Z,35.60
2022-10-29T18:30:06.236Z,33.58
2022-10-29T18:32:34.612Z,32.80
2022-10-29T18:35:06.554Z,34.20
2022-10-29T18:40:12.834Z,31.73
2022-10-29T18:42:43.973Z,35.25
2022-10-29T18:45:13.298Z,30.08
2022-10-29T18:47:42.900Z,33.83
2022-10-29T18:50:12.720Z,34.38
2022-10-29T18:52:41.663Z,40.58
2022-10-29T18:55:12.316Z,37.35
2022-10-29T18:57:42.580Z,37.10
2022-10-29T19:00:13.671Z,32.30
2022-10-29T19:02:47.125Z,34.58
2022-10-29T19:05:20.175Z,30.60
2022-10-29T19:07:48.171Z,32.45
2022-10-29T19:10:19.327Z,32.28
2022-10-29T19:12:51.614Z,42.25
2022-10-29T19:15:26.547Z,32.15
2022-10-29T19:17:55.515Z,36.47
2022-10-29T19:20:25.273Z,33.42
2022-10-29T19:22:55.428Z,35.38
2022-10-29T19:25:28.643Z,43.78
2022-10-29T19:27:56.990Z,38.92
2022-10-29T19:30:25.555Z,40.33
2022-10-29T19:33:09.257Z,41.75
2022-10-29T19:35:37.737Z,48.00
2022-10-29T19:38:07.471Z,38.15
2022-10-29T19:40:37.616Z,42.22
2022-10-29T19:43:10.123Z,38.10
2022-10-29T19:45:42.591Z,44.33
2022-10-29T19:48:12.189Z,48.65
2022-10-29T19:50:41.800Z,38.13
2022-10-29T19:53:13.352Z,38.25
2022-10-29T19:55:46.856Z,37.72
2022-10-29T19:58:20.711Z,36.97
2022-10-29T20:00:50.115Z,41.08
2022-10-29T20:03:19.412Z,43.13
2022-10-29T20:05:48.143Z,34.28
2022-10-29T20:08:17.449Z,34.10
2022-10-29T20:10:55.610Z,46.15
2022-10-29T20:13:26.596Z,43.17
2022-10-29T20:15:55.057Z,45.28
2022-10-29T20:18:25.083Z,47.00
2022-10-29T20:20:59.684Z,41.20
2022-10-29T20:23:29.080Z,47.40
2022-10-29T20:26:12.149Z,45.42
2022-10-29T20:28:41.449Z,45.45
2022-10-29T20:31:34.722Z,50.30
2022-10-29T20:34:06.155Z,48.45
2022-10-29T20:36:34.944Z,45.35
2022-10-29T20:39:03.662Z,50.28
2022-10-29T20:41:35.398Z,52.28
2022-10-29T20:44:03.732Z,55.55
2022-10-29T20:46:40.954Z,51.42
2022-10-29T20:49:12.078Z,49.15
2022-10-29T20:51:40.067Z,49.85
2022-10-29T20:54:09.528Z,45.90
2022-10-29T20:56:40.243Z,53.58
2022-10-29T20:59:10.265Z,54.78
2022-10-29T21:01:38.637Z,60.45
2022-10-29T21:04:07.076Z,59.85
2022-10-29T21:06:35.599Z,52.65
2022-10-29T21:09:03.974Z,59.40
2022-10-29T21:11:32.843Z,53.95
2022-10-29T21:14:02.970Z,61.15
2022-10-29T21:16:31.339Z,57.42
2022-10-29T21:19:01.107Z,51.38
2022-10-29T21:21:29.979Z,51.75
2022-10-29T21:24:00.871Z,60.50
2022-10-29T21:26:29.638Z,52.33
2022-10-29T21:28:58.449Z,51.65
2022-10-29T21:31:36.027Z,53.70
2022-10-29T21:34:07.595Z,52.50
2022-10-29T21:36:37.012Z,49.20
2022-10-29T21:39:05.647Z,47.60
2022-10-29T21:41:34.228Z,58.53
2022-10-29T21:44:04.498Z,56.30
2022-10-29T21:46:39.266Z,57.92
2022-10-29T21:49:08.620Z,55.03
2022-10-29T21:51:41.315Z,52.42
2022-10-29T21:54:10.831Z,68.35
2022-10-29T21:56:40.363Z,55.42
2022-10-29T21:59:09.868Z,59.25
2022-10-29T22:01:43.787Z,63.00
2022-10-29T22:04:14.057Z,51.72
2022-10-29T22:06:45.794Z,55.78
2022-10-29T22:09:14.890Z,63.30
2022-10-29T22:11:44.727Z,53.30
2022-10-29T22:14:13.870Z,53.08
2022-10-29T22:16:43.468Z,48.25
2022-10-29T22:19:12.363Z,51.95
2022-10-29T22:21:41.950Z,53.00
2022-10-29T22:24:10.746Z,43.13
2022-10-29T22:26:38.907Z,45.20
2022-10-29T22:29:11.603Z,46.17
2022-10-29T22:31:40.704Z,49.33
2022-10-29T22:34:10.528Z,51.22
2022-10-29T22:36:41.787Z,46.38
2022-10-29T22:39:10.206Z,40.38
2022-10-29T22:41:41.133Z,42.92
2022-10-29T22:44:11.426Z,43.50
2022-10-29T22:46:40.778Z,48.83
2022-10-29T22:49:12.359Z,50.33
2022-10-29T22:51:40.801Z,51.00
2022-10-29T22:54:10.417Z,47.13
2022-10-29T22:56:43.150Z,56.38
2022-10-29T22:59:13.253Z,59.92
2022-10-29T23:01:45.328Z,55.58
2022-10-29T23:04:19.006Z,55.30
2022-10-29T23:06:49.556Z,53.05
2022-10-29T23:09:18.298Z,57.17
2022-10-29T23:11:46.889Z,60.20
2022-10-29T23:14:15.591Z,61.20
2022-10-29T23:16:44.006Z,61.10
2022-10-29T23:19:17.104Z,65.00
2022-10-29T23:21:49.137Z,57.88
2022-10-29T23:24:17.822Z,54.28
2022-10-29T23:26:47.610Z,53.72
2022-10-29T23:29:18.318Z,61.88
2022-10-29T23:31:48.049Z,62.10
2022-10-29T23:34:25.611Z,56.55
2022-10-29T23:36:55.916Z,57.65
2022-10-29T23:39:24.508Z,59.30
2022-10-29T23:41:53.171Z,55.17
2022-10-29T23:44:24.756Z,61.30
2022-10-29T23:46:52.918Z,65.07
2022-10-29T23:49:22.913Z,57.80
2022-10-29T23:51:52.403Z,60.67
2022-10-29T23:54:21.424Z,58.30
2022-10-29T23:56:53.255Z,53.08
2022-10-29T23:59:27.298Z,58.78
